sensor_id;sensor_type;location;lat;lon;timestamp;P1;durP1;ratioP1;P2;durP2;ratioP2
11427;SDS011;5770;44.504;11.346;2022-12-10T00:00:34;19.83;;;17.83;;
11427;SDS011;5770;44.504;11.346;2022-12-10T00:03:01;20.80;;;18.67;;
11427;SDS011;5770;44.504;11.346;2022-12-10T00:05:30;19.27;;;17.35;;
11427;SDS011;5770;44.504;11.346;2022-12-10T00:08:00;17.27;;;15.57;;
11427;SDS011;5770;44.504;11.346;2022-12-10T00:10:30;17.20;;;15.50;;
11427;SDS011;5770;44.504;11.346;2022-12-10T00:12:57;17.15;;;15.45;;
11427;SDS011;5770;44.504;11.346;2022-12-10T00:15:25;16.58;;;14.98;;
11427;SDS011;5770;44.504;11.346;2022-12-10T00:17:52;16.42;;;14.77;;
11427;SDS011;5770;44.504;11.346;2022-12-10T00:20:20;15.43;;;13.93;;
11427;SDS011;5770;44.504;11.346;2022-12-10T00:22:48;15.30;;;13.68;;
11427;SDS011;5770;44.504;11.346;2022-12-10T00:25:19;15.73;;;14.13;;
11427;SDS011;5770;44.504;11.346;2022-12-10T00:27:46;15.07;;;13.50;;
11427;SDS011;5770;44.504;11.346;2022-12-10T00:30:13;15.15;;;13.65;;
11427;SDS011;5770;44.504;11.346;2022-12-10T00:32:41;15.02;;;13.52;;
11427;SDS011;5770;44.504;11.346;2022-12-10T00:35:14;14.75;;;13.25;;
11427;SDS011;5770;44.504;11.346;2022-12-10T00:37:41;15.25;;;13.75;;
11427;SDS011;5770;44.504;11.346;2022-12-10T00:40:10;15.70;;;13.80;;
11427;SDS011;5770;44.504;11.346;2022-12-10T00:42:38;16.40;;;14.13;;
11427;SDS011;5770;44.504;11.346;2022-12-10T00:45:06;14.60;;;13.15;;
11427;SDS011;5770;44.504;11.346;2022-12-10T00:47:33;14.82;;;13.32;;
11427;SDS011;5770;44.504;11.346;2022-12-10T00:50:00;16.35;;;14.15;;
11427;SDS011;5770;44.504;11.346;2022-12-10T00:52:27;15.48;;;13.88;;
11427;SDS011;5770;44.504;11.346;2022-12-10T00:54:55;14.82;;;13.32;;
11427;SDS011;5770;44.504;11.346;2022-12-10T00:57:24;16.63;;;14.80;;
11427;SDS011;5770;44.504;11.346;2022-12-10T00:59:51;15.23;;;13.68;;
11427;SDS011;5770;44.504;11.346;2022-12-10T01:02:18;16.60;;;14.73;;
11427;SDS011;5770;44.504;11.346;2022-12-10T01:04:46;17.05;;;15.23;;
11427;SDS011;5770;44.504;11.346;2022-12-10T01:07:13;16.75;;;14.95;;
11427;SDS011;5770;44.504;11.346;2022-12-10T01:09:40;16.83;;;15.02;;
11427;SDS011;5770;44.504;11.346;2022-12-10T01:12:08;16.50;;;14.73;;
11427;SDS011;5770;44.504;11.346;2022-12-10T01:14:43;17.88;;;15.88;;
11427;SDS011;5770;44.504;11.346;2022-12-10T01:17:11;18.23;;;16.08;;
11427;SDS011;5770;44.504;11.346;2022-12-10T01:19:38;16.10;;;14.25;;
11427;SDS011;5770;44.504;11.346;2022-12-10T01:22:05;16.65;;;14.95;;
11427;SDS011;5770;44.504;11.346;2022-12-10T01:24:32;16.13;;;14.43;;
11427;SDS011;5770;44.504;11.346;2022-12-10T01:27:00;17.10;;;14.38;;
11427;SDS011;5770;44.504;11.346;2022-12-10T01:29:27;16.67;;;14.13;;
11427;SDS011;5770;44.504;11.346;2022-12-10T01:31:56;17.42;;;14.70;;
11427;SDS011;5770;44.504;11.346;2022-12-10T01:34:24;15.95;;;14.25;;
11427;SDS011;5770;44.504;11.346;2022-12-10T01:36:52;16.55;;;14.00;;
11427;SDS011;5770;44.504;11.346;2022-12-10T01:39:20;16.80;;;15.00;;
11427;SDS011;5770;44.504;11.346;2022-12-10T01:41:49;15.68;;;13.98;;
11427;SDS011;5770;44.504;11.346;2022-12-10T01:47:37;15.57;;;13.45;;
11427;SDS011;5770;44.504;11.346;2022-12-10T01:50:05;15.38;;;13.82;;
11427;SDS011;5770;44.504;11.346;2022-12-10T01:52:33;15.90;;;14.20;;
11427;SDS011;5770;44.504;11.346;2022-12-10T01:55:01;14.90;;;13.20;;
11427;SDS011;5770;44.504;11.346;2022-12-10T01:57:28;15.68;;;13.68;;
11427;SDS011;5770;44.504;11.346;2022-12-10T01:59:56;15.30;;;13.48;;
11427;SDS011;5770;44.504;11.346;2022-12-10T02:05:14;15.63;;;13.80;;
11427;SDS011;5770;44.504;11.346;2022-12-10T02:07:48;15.68;;;13.48;;
11427;SDS011;5770;44.504;11.346;2022-12-10T02:10:29;15.05;;;13.45;;
11427;SDS011;5770;44.504;11.346;2022-12-10T02:13:05;15.60;;;13.32;;
11427;SDS011;5770;44.504;11.346;2022-12-10T02:15:39;15.65;;;13.27;;
11427;SDS011;5770;44.504;11.346;2022-12-10T02:18:11;15.75;;;14.15;;
11427;SDS011;5770;44.504;11.346;2022-12-10T02:20:43;14.45;;;12.93;;
11427;SDS011;5770;44.504;11.346;2022-12-10T02:23:15;15.45;;;13.55;;
11427;SDS011;5770;44.504;11.346;2022-12-10T02:25:43;16.17;;;14.00;;
11427;SDS011;5770;44.504;11.346;2022-12-10T02:28:19;15.48;;;13.90;;
11427;SDS011;5770;44.504;11.346;2022-12-10T02:30:49;15.10;;;13.27;;
11427;SDS011;5770;44.504;11.346;2022-12-10T02:33:17;15.85;;;13.52;;
11427;SDS011;5770;44.504;11.346;2022-12-10T02:35:46;15.20;;;13.60;;
11427;SDS011;5770;44.504;11.346;2022-12-10T02:38:17;14.98;;;13.05;;
11427;SDS011;5770;44.504;11.346;2022-12-10T02:40:46;16.67;;;13.68;;
11427;SDS011;5770;44.504;11.346;2022-12-10T02:43:15;14.55;;;13.05;;
11427;SDS011;5770;44.504;11.346;2022-12-10T02:45:43;14.40;;;12.85;;
11427;SDS011;5770;44.504;11.346;2022-12-10T02:48:12;14.45;;;12.43;;
11427;SDS011;5770;44.504;11.346;2022-12-10T02:50:40;14.93;;;12.80;;
11427;SDS011;5770;44.504;11.346;2022-12-10T02:53:08;15.07;;;12.50;;
11427;SDS011;5770;44.504;11.346;2022-12-10T02:55:39;13.85;;;12.52;;
11427;SDS011;5770;44.504;11.346;2022-12-10T02:58:20;14.82;;;12.52;;
11427;SDS011;5770;44.504;11.346;2022-12-10T03:00:56;14.77;;;12.38;;
11427;SDS011;5770;44.504;11.346;2022-12-10T03:03:33;15.75;;;13.00;;
11427;SDS011;5770;44.504;11.346;2022-12-10T03:06:10;14.52;;;13.02;;
11427;SDS011;5770;44.504;11.346;2022-12-10T03:08:39;14.32;;;12.77;;
11427;SDS011;5770;44.504;11.346;2022-12-10T03:11:08;14.38;;;12.88;;
11427;SDS011;5770;44.504;11.346;2022-12-10T03:13:45;14.75;;;13.13;;
11427;SDS011;5770;44.504;11.346;2022-12-10T03:16:19;15.30;;;13.32;;
11427;SDS011;5770;44.504;11.346;2022-12-10T03:18:49;14.60;;;13.07;;
11427;SDS011;5770;44.504;11.346;2022-12-10T03:21:18;14.63;;;13.13;;
11427;SDS011;5770;44.504;11.346;2022-12-10T03:23:47;16.92;;;13.73;;
11427;SDS011;5770;44.504;11.346;2022-12-10T03:26:14;17.27;;;14.02;;
11427;SDS011;5770;44.504;11.346;2022-12-10T03:28:45;14.82;;;13.07;;
11427;SDS011;5770;44.504;11.346;2022-12-10T03:31:16;14.55;;;12.88;;
11427;SDS011;5770;44.504;11.346;2022-12-10T03:33:45;14.70;;;13.00;;
11427;SDS011;5770;44.504;11.346;2022-12-10T03:36:14;17.20;;;14.05;;
11427;SDS011;5770;44.504;11.346;2022-12-10T03:38:44;16.60;;;14.18;;
11427;SDS011;5770;44.504;11.346;2022-12-10T03:41:11;15.30;;;13.48;;
11427;SDS011;5770;44.504;11.346;2022-12-10T03:43:49;15.90;;;13.93;;
11427;SDS011;5770;44.504;11.346;2022-12-10T03:46:17;14.65;;;13.00;;
11427;SDS011;5770;44.504;11.346;2022-12-10T03:48:44;17.75;;;13.45;;
11427;SDS011;5770;44.504;11.346;2022-12-10T03:51:11;19.15;;;13.38;;
11427;SDS011;5770;44.504;11.346;2022-12-10T03:53:40;15.50;;;13.85;;
11427;SDS011;5770;44.504;11.346;2022-12-10T03:56:07;15.25;;;13.23;;
11427;SDS011;5770;44.504;11.346;2022-12-10T03:58:34;15.48;;;13.20;;
11427;SDS011;5770;44.504;11.346;2022-12-10T04:01:02;14.70;;;13.13;;
11427;SDS011;5770;44.504;11.346;2022-12-10T04:03:29;15.52;;;13.90;;
11427;SDS011;5770;44.504;11.346;2022-12-10T04:06:00;15.07;;;13.48;;
11427;SDS011;5770;44.504;11.346;2022-12-10T04:08:28;15.55;;;13.10;;
11427;SDS011;5770;44.504;11.346;2022-12-10T04:11:00;14.77;;;13.07;;
11427;SDS011;5770;44.504;11.346;2022-12-10T04:13:28;13.98;;;12.50;;
11427;SDS011;5770;44.504;11.346;2022-12-10T04:16:14;16.20;;;13.60;;
11427;SDS011;5770;44.504;11.346;2022-12-10T04:18:53;15.55;;;13.07;;
11427;SDS011;5770;44.504;11.346;2022-12-10T04:21:21;16.05;;;13.93;;
11427;SDS011;5770;44.504;11.346;2022-12-10T04:24:07;15.20;;;13.60;;
11427;SDS011;5770;44.504;11.346;2022-12-10T04:26:53;16.05;;;13.48;;
11427;SDS011;5770;44.504;11.346;2022-12-10T04:29:21;15.55;;;13.50;;
11427;SDS011;5770;44.504;11.346;2022-12-10T04:31:50;15.40;;;12.98;;
11427;SDS011;5770;44.504;11.346;2022-12-10T04:34:18;14.57;;;12.32;;
11427;SDS011;5770;44.504;11.346;2022-12-10T04:36:45;16.92;;;13.10;;
11427;SDS011;5770;44.504;11.346;2022-12-10T04:39:13;15.07;;;13.18;;
11427;SDS011;5770;44.504;11.346;2022-12-10T04:41:40;16.80;;;13.35;;
11427;SDS011;5770;44.504;11.346;2022-12-10T04:44:09;17.27;;;12.93;;
11427;SDS011;5770;44.504;11.346;2022-12-10T04:46:37;14.63;;;12.82;;
11427;SDS011;5770;44.504;11.346;2022-12-10T04:49:04;14.57;;;12.80;;
11427;SDS011;5770;44.504;11.346;2022-12-10T04:51:32;14.25;;;12.75;;
11427;SDS011;5770;44.504;11.346;2022-12-10T04:53:59;15.77;;;13.25;;
11427;SDS011;5770;44.504;11.346;2022-12-10T04:56:26;15.10;;;12.85;;
11427;SDS011;5770;44.504;11.346;2022-12-10T04:58:54;17.80;;;13.32;;
11427;SDS011;5770;44.504;11.346;2022-12-10T05:01:23;16.08;;;13.65;;
11427;SDS011;5770;44.504;11.346;2022-12-10T05:03:50;14.80;;;12.30;;
11427;SDS011;5770;44.504;11.346;2022-12-10T05:06:18;15.02;;;13.27;;
11427;SDS011;5770;44.504;11.346;2022-12-10T05:08:46;14.35;;;12.80;;
11427;SDS011;5770;44.504;11.346;2022-12-10T05:11:14;16.45;;;13.05;;
11427;SDS011;5770;44.504;11.346;2022-12-10T05:13:41;15.05;;;13.07;;
11427;SDS011;5770;44.504;11.346;2022-12-10T05:16:09;15.25;;;12.82;;
11427;SDS011;5770;44.504;11.346;2022-12-10T05:18:39;15.88;;;12.82;;
11427;SDS011;5770;44.504;11.346;2022-12-10T05:21:07;14.60;;;12.85;;
11427;SDS011;5770;44.504;11.346;2022-12-10T05:23:36;14.57;;;13.02;;
11427;SDS011;5770;44.504;11.346;2022-12-10T05:26:03;14.48;;;12.98;;
11427;SDS011;5770;44.504;11.346;2022-12-10T05:28:33;14.68;;;12.65;;
11427;SDS011;5770;44.504;11.346;2022-12-10T05:31:00;15.88;;;13.30;;
11427;SDS011;5770;44.504;11.346;2022-12-10T05:33:28;17.77;;;13.50;;
11427;SDS011;5770;44.504;11.346;2022-12-10T05:35:58;15.38;;;13.27;;
11427;SDS011;5770;44.504;11.346;2022-12-10T05:38:26;15.93;;;13.63;;
11427;SDS011;5770;44.504;11.346;2022-12-10T05:40:54;18.75;;;14.10;;
11427;SDS011;5770;44.504;11.346;2022-12-10T05:43:21;17.88;;;14.18;;
11427;SDS011;5770;44.504;11.346;2022-12-10T05:45:48;18.58;;;14.77;;
11427;SDS011;5770;44.504;11.346;2022-12-10T05:48:15;16.67;;;14.55;;
11427;SDS011;5770;44.504;11.346;2022-12-10T05:50:42;16.20;;;14.45;;
11427;SDS011;5770;44.504;11.346;2022-12-10T05:53:11;15.27;;;13.55;;
11427;SDS011;5770;44.504;11.346;2022-12-10T05:55:39;17.92;;;13.60;;
11427;SDS011;5770;44.504;11.346;2022-12-10T05:58:07;15.98;;;13.98;;
11427;SDS011;5770;44.504;11.346;2022-12-10T06:00:34;16.30;;;13.93;;
11427;SDS011;5770;44.504;11.346;2022-12-10T06:03:01;15.55;;;13.68;;
11427;SDS011;5770;44.504;11.346;2022-12-10T06:05:28;15.25;;;13.65;;
11427;SDS011;5770;44.504;11.346;2022-12-10T06:07:55;15.05;;;13.45;;
11427;SDS011;5770;44.504;11.346;2022-12-10T06:10:23;17.63;;;14.55;;
11427;SDS011;5770;44.504;11.346;2022-12-10T06:12:51;17.65;;;14.40;;
11427;SDS011;5770;44.504;11.346;2022-12-10T06:15:18;14.38;;;12.88;;
11427;SDS011;5770;44.504;11.346;2022-12-10T06:17:45;16.48;;;13.27;;
11427;SDS011;5770;44.504;11.346;2022-12-10T06:20:12;15.02;;;13.40;;
11427;SDS011;5770;44.504;11.346;2022-12-10T06:22:39;16.85;;;14.32;;
11427;SDS011;5770;44.504;11.346;2022-12-10T06:25:06;15.30;;;13.70;;
11427;SDS011;5770;44.504;11.346;2022-12-10T06:27:35;15.25;;;13.63;;
11427;SDS011;5770;44.504;11.346;2022-12-10T06:30:02;17.95;;;14.15;;
11427;SDS011;5770;44.504;11.346;2022-12-10T06:32:30;15.85;;;14.15;;
11427;SDS011;5770;44.504;11.346;2022-12-10T06:34:57;14.88;;;13.25;;
11427;SDS011;5770;44.504;11.346;2022-12-10T06:37:24;16.98;;;14.20;;
11427;SDS011;5770;44.504;11.346;2022-12-10T06:39:52;15.18;;;13.57;;
11427;SDS011;5770;44.504;11.346;2022-12-10T06:42:20;18.67;;;13.93;;
11427;SDS011;5770;44.504;11.346;2022-12-10T06:44:48;14.80;;;13.18;;
11427;SDS011;5770;44.504;11.346;2022-12-10T06:47:16;15.38;;;13.75;;
11427;SDS011;5770;44.504;11.346;2022-12-10T06:49:43;17.63;;;13.68;;
11427;SDS011;5770;44.504;11.346;2022-12-10T06:52:10;15.52;;;13.15;;
11427;SDS011;5770;44.504;11.346;2022-12-10T06:54:37;15.43;;;13.82;;
11427;SDS011;5770;44.504;11.346;2022-12-10T06:57:04;15.50;;;13.88;;
11427;SDS011;5770;44.504;11.346;2022-12-10T06:59:32;14.77;;;13.27;;
11427;SDS011;5770;44.504;11.346;2022-12-10T07:02:00;15.10;;;12.93;;
11427;SDS011;5770;44.504;11.346;2022-12-10T07:04:28;14.88;;;13.30;;
11427;SDS011;5770;44.504;11.346;2022-12-10T07:06:55;15.18;;;13.57;;
11427;SDS011;5770;44.504;11.346;2022-12-10T07:09:22;16.38;;;13.32;;
11427;SDS011;5770;44.504;11.346;2022-12-10T07:11:50;15.32;;;13.63;;
11427;SDS011;5770;44.504;11.346;2022-12-10T07:14:17;15.65;;;13.93;;
11427;SDS011;5770;44.504;11.346;2022-12-10T07:16:45;16.13;;;13.38;;
11427;SDS011;5770;44.504;11.346;2022-12-10T07:19:13;18.38;;;13.02;;
11427;SDS011;5770;44.504;11.346;2022-12-10T07:21:41;18.25;;;14.55;;
11427;SDS011;5770;44.504;11.346;2022-12-10T07:24:10;15.68;;;13.95;;
11427;SDS011;5770;44.504;11.346;2022-12-10T07:26:41;16.05;;;13.18;;
11427;SDS011;5770;44.504;11.346;2022-12-10T07:29:09;16.55;;;13.05;;
11427;SDS011;5770;44.504;11.346;2022-12-10T07:31:38;16.73;;;14.05;;
11427;SDS011;5770;44.504;11.346;2022-12-10T07:34:08;14.23;;;12.75;;
11427;SDS011;5770;44.504;11.346;2022-12-10T07:36:37;16.48;;;13.77;;
11427;SDS011;5770;44.504;11.346;2022-12-10T07:39:05;14.93;;;13.05;;
11427;SDS011;5770;44.504;11.346;2022-12-10T07:41:32;15.40;;;13.77;;
11427;SDS011;5770;44.504;11.346;2022-12-10T07:44:01;15.57;;;13.98;;
11427;SDS011;5770;44.504;11.346;2022-12-10T07:46:30;15.35;;;13.75;;
11427;SDS011;5770;44.504;11.346;2022-12-10T07:48:59;16.30;;;14.52;;
11427;SDS011;5770;44.504;11.346;2022-12-10T07:51:27;16.98;;;14.88;;
11427;SDS011;5770;44.504;11.346;2022-12-10T07:53:56;16.85;;;15.07;;
11427;SDS011;5770;44.504;11.346;2022-12-10T07:56:23;14.88;;;13.38;;
11427;SDS011;5770;44.504;11.346;2022-12-10T07:58:51;15.90;;;14.27;;
11427;SDS011;5770;44.504;11.346;2022-12-10T08:01:20;16.88;;;15.07;;
11427;SDS011;5770;44.504;11.346;2022-12-10T08:03:49;17.38;;;15.63;;
11427;SDS011;5770;44.504;11.346;2022-12-10T08:06:18;16.13;;;14.25;;
11427;SDS011;5770;44.504;11.346;2022-12-10T08:08:46;17.00;;;15.20;;
11427;SDS011;5770;44.504;11.346;2022-12-10T08:11:16;22.38;;;15.18;;
11427;SDS011;5770;44.504;11.346;2022-12-10T08:13:44;15.93;;;14.25;;
11427;SDS011;5770;44.504;11.346;2022-12-10T08:16:13;17.10;;;15.30;;
11427;SDS011;5770;44.504;11.346;2022-12-10T08:18:40;17.85;;;15.60;;
11427;SDS011;5770;44.504;11.346;2022-12-10T08:21:09;17.73;;;15.57;;
11427;SDS011;5770;44.504;11.346;2022-12-10T08:23:37;17.13;;;15.32;;
11427;SDS011;5770;44.504;11.346;2022-12-10T08:26:05;18.88;;;16.02;;
11427;SDS011;5770;44.504;11.346;2022-12-10T08:28:34;17.60;;;15.55;;
11427;SDS011;5770;44.504;11.346;2022-12-10T08:31:01;18.77;;;16.63;;
11427;SDS011;5770;44.504;11.346;2022-12-10T08:33:29;18.20;;;16.30;;
11427;SDS011;5770;44.504;11.346;2022-12-10T08:35:56;18.10;;;15.95;;
11427;SDS011;5770;44.504;11.346;2022-12-10T08:38:25;17.13;;;15.43;;
11427;SDS011;5770;44.504;11.346;2022-12-10T08:40:52;18.15;;;16.25;;
11427;SDS011;5770;44.504;11.346;2022-12-10T08:43:19;23.48;;;17.17;;
11427;SDS011;5770;44.504;11.346;2022-12-10T08:45:48;18.98;;;17.00;;
11427;SDS011;5770;44.504;11.346;2022-12-10T08:48:15;19.55;;;17.58;;
11427;SDS011;5770;44.504;11.346;2022-12-10T08:50:45;19.35;;;17.30;;
11427;SDS011;5770;44.504;11.346;2022-12-10T08:53:12;19.40;;;17.30;;
11427;SDS011;5770;44.504;11.346;2022-12-10T08:55:39;20.67;;;18.48;;
11427;SDS011;5770;44.504;11.346;2022-12-10T08:58:07;21.88;;;19.58;;
11427;SDS011;5770;44.504;11.346;2022-12-10T09:00:35;22.98;;;20.58;;
11427;SDS011;5770;44.504;11.346;2022-12-10T09:03:04;23.95;;;21.45;;
11427;SDS011;5770;44.504;11.346;2022-12-10T09:05:32;25.02;;;21.17;;
11427;SDS011;5770;44.504;11.346;2022-12-10T09:08:01;24.52;;;21.98;;
11427;SDS011;5770;44.504;11.346;2022-12-10T09:10:28;24.92;;;22.00;;
11427;SDS011;5770;44.504;11.346;2022-12-10T09:12:55;25.85;;;23.15;;
11427;SDS011;5770;44.504;11.346;2022-12-10T09:15:23;25.67;;;22.98;;
11427;SDS011;5770;44.504;11.346;2022-12-10T09:17:50;26.13;;;23.25;;
11427;SDS011;5770;44.504;11.346;2022-12-10T09:20:19;26.83;;;24.05;;
11427;SDS011;5770;44.504;11.346;2022-12-10T09:22:46;27.50;;;24.60;;
11427;SDS011;5770;44.504;11.346;2022-12-10T09:25:13;27.38;;;24.50;;
11427;SDS011;5770;44.504;11.346;2022-12-10T09:27:46;27.20;;;24.25;;
11427;SDS011;5770;44.504;11.346;2022-12-10T09:30:13;27.77;;;24.30;;
11427;SDS011;5770;44.504;11.346;2022-12-10T09:32:41;27.02;;;24.15;;
11427;SDS011;5770;44.504;11.346;2022-12-10T09:35:09;28.58;;;25.48;;
11427;SDS011;5770;44.504;11.346;2022-12-10T09:37:40;28.83;;;25.38;;
11427;SDS011;5770;44.504;11.346;2022-12-10T09:40:09;27.95;;;24.83;;
11427;SDS011;5770;44.504;11.346;2022-12-10T09:42:39;29.52;;;26.23;;
11427;SDS011;5770;44.504;11.346;2022-12-10T09:45:15;27.63;;;24.73;;
11427;SDS011;5770;44.504;11.346;2022-12-10T09:47:49;30.80;;;26.63;;
11427;SDS011;5770;44.504;11.346;2022-12-10T09:50:20;29.63;;;26.45;;
11427;SDS011;5770;44.504;11.346;2022-12-10T09:52:54;29.40;;;26.23;;
11427;SDS011;5770;44.504;11.346;2022-12-10T09:55:24;28.58;;;25.58;;
11427;SDS011;5770;44.504;11.346;2022-12-10T09:57:53;30.33;;;27.13;;
11427;SDS011;5770;44.504;11.346;2022-12-10T10:00:23;30.23;;;26.90;;
11427;SDS011;5770;44.504;11.346;2022-12-10T10:02:55;28.90;;;25.95;;
11427;SDS011;5770;44.504;11.346;2022-12-10T10:05:26;30.73;;;27.42;;
11427;SDS011;5770;44.504;11.346;2022-12-10T10:07:56;30.33;;;26.98;;
11427;SDS011;5770;44.504;11.346;2022-12-10T10:10:29;30.40;;;27.10;;
11427;SDS011;5770;44.504;11.346;2022-12-10T10:12:58;29.50;;;26.40;;
11427;SDS011;5770;44.504;11.346;2022-12-10T10:15:29;30.98;;;27.63;;
11427;SDS011;5770;44.504;11.346;2022-12-10T10:17:58;30.17;;;27.02;;
11427;SDS011;5770;44.504;11.346;2022-12-10T10:20:28;29.25;;;25.67;;
11427;SDS011;5770;44.504;11.346;2022-12-10T10:22:58;29.05;;;25.98;;
11427;SDS011;5770;44.504;11.346;2022-12-10T10:25:26;27.33;;;24.40;;
11427;SDS011;5770;44.504;11.346;2022-12-10T10:27:55;29.23;;;25.80;;
11427;SDS011;5770;44.504;11.346;2022-12-10T10:30:22;29.92;;;25.38;;
11427;SDS011;5770;44.504;11.346;2022-12-10T10:32:51;28.70;;;25.60;;
11427;SDS011;5770;44.504;11.346;2022-12-10T10:35:22;29.23;;;25.95;;
11427;SDS011;5770;44.504;11.346;2022-12-10T10:37:52;29.15;;;26.00;;
11427;SDS011;5770;44.504;11.346;2022-12-10T10:40:26;29.10;;;25.98;;
11427;SDS011;5770;44.504;11.346;2022-12-10T10:42:58;28.88;;;25.75;;
11427;SDS011;5770;44.504;11.346;2022-12-10T10:45:34;30.15;;;27.05;;
11427;SDS011;5770;44.504;11.346;2022-12-10T10:48:08;29.95;;;26.92;;
11427;SDS011;5770;44.504;11.346;2022-12-10T10:50:37;30.23;;;26.95;;
11427;SDS011;5770;44.504;11.346;2022-12-10T10:53:25;29.35;;;26.35;;
11427;SDS011;5770;44.504;11.346;2022-12-10T10:56:01;29.88;;;26.70;;
11427;SDS011;5770;44.504;11.346;2022-12-10T10:58:33;30.60;;;27.40;;
11427;SDS011;5770;44.504;11.346;2022-12-10T11:01:01;31.17;;;27.50;;
11427;SDS011;5770;44.504;11.346;2022-12-10T11:03:29;31.88;;;28.52;;
11427;SDS011;5770;44.504;11.346;2022-12-10T11:05:59;30.77;;;27.63;;
11427;SDS011;5770;44.504;11.346;2022-12-10T11:08:30;31.70;;;28.38;;
11427;SDS011;5770;44.504;11.346;2022-12-10T11:10:58;32.60;;;29.13;;
11427;SDS011;5770;44.504;11.346;2022-12-10T11:13:30;31.85;;;28.42;;
11427;SDS011;5770;44.504;11.346;2022-12-10T11:16:01;34.20;;;29.55;;
11427;SDS011;5770;44.504;11.346;2022-12-10T11:18:36;32.47;;;29.08;;
11427;SDS011;5770;44.504;11.346;2022-12-10T11:21:16;31.13;;;27.92;;
11427;SDS011;5770;44.504;11.346;2022-12-10T11:23:48;33.45;;;29.85;;
11427;SDS011;5770;44.504;11.346;2022-12-10T11:29:17;33.53;;;29.42;;
11427;SDS011;5770;44.504;11.346;2022-12-10T11:31:59;32.70;;;29.20;;
11427;SDS011;5770;44.504;11.346;2022-12-10T11:34:33;33.60;;;30.08;;
11427;SDS011;5770;44.504;11.346;2022-12-10T11:37:09;33.78;;;30.27;;
11427;SDS011;5770;44.504;11.346;2022-12-10T11:39:51;33.72;;;30.13;;
11427;SDS011;5770;44.504;11.346;2022-12-10T11:42:31;33.35;;;29.75;;
11427;SDS011;5770;44.504;11.346;2022-12-10T11:45:07;32.47;;;29.08;;
11427;SDS011;5770;44.504;11.346;2022-12-10T11:47:48;32.78;;;28.65;;
11427;SDS011;5770;44.504;11.346;2022-12-10T11:50:20;35.03;;;30.17;;
11427;SDS011;5770;44.504;11.346;2022-12-10T11:53:00;33.78;;;30.10;;
11427;SDS011;5770;44.504;11.346;2022-12-10T11:55:33;33.22;;;29.73;;
11427;SDS011;5770;44.504;11.346;2022-12-10T11:58:17;32.22;;;28.75;;
11427;SDS011;5770;44.504;11.346;2022-12-10T12:00:55;33.40;;;29.90;;
11427;SDS011;5770;44.504;11.346;2022-12-10T12:03:38;32.60;;;29.20;;
11427;SDS011;5770;44.504;11.346;2022-12-10T12:06:32;32.60;;;29.17;;
11427;SDS011;5770;44.504;11.346;2022-12-10T12:09:21;34.20;;;29.55;;
11427;SDS011;5770;44.504;11.346;2022-12-10T12:12:06;32.88;;;29.40;;
11427;SDS011;5770;44.504;11.346;2022-12-10T12:14:39;34.45;;;30.40;;
11427;SDS011;5770;44.504;11.346;2022-12-10T12:17:10;35.13;;;31.30;;
11427;SDS011;5770;44.504;11.346;2022-12-10T12:19:42;35.97;;;31.17;;
11427;SDS011;5770;44.504;11.346;2022-12-10T12:22:14;35.67;;;31.83;;
11427;SDS011;5770;44.504;11.346;2022-12-10T12:24:42;34.90;;;31.13;;
11427;SDS011;5770;44.504;11.346;2022-12-10T12:27:16;35.72;;;31.92;;
11427;SDS011;5770;44.504;11.346;2022-12-10T12:29:51;34.85;;;31.05;;
11427;SDS011;5770;44.504;11.346;2022-12-10T12:32:25;35.45;;;31.60;;
11427;SDS011;5770;44.504;11.346;2022-12-10T12:34:56;34.60;;;30.67;;
11427;SDS011;5770;44.504;11.346;2022-12-10T12:37:28;34.78;;;30.90;;
11427;SDS011;5770;44.504;11.346;2022-12-10T12:40:03;35.53;;;31.75;;
11427;SDS011;5770;44.504;11.346;2022-12-10T12:42:40;35.90;;;32.00;;
11427;SDS011;5770;44.504;11.346;2022-12-10T12:45:10;39.05;;;31.05;;
11427;SDS011;5770;44.504;11.346;2022-12-10T12:47:41;37.17;;;33.00;;
11427;SDS011;5770;44.504;11.346;2022-12-10T12:50:14;36.05;;;32.15;;
11427;SDS011;5770;44.504;11.346;2022-12-10T12:52:48;34.42;;;30.67;;
11427;SDS011;5770;44.504;11.346;2022-12-10T12:55:20;34.15;;;30.52;;
11427;SDS011;5770;44.504;11.346;2022-12-10T12:57:54;34.53;;;30.75;;
11427;SDS011;5770;44.504;11.346;2022-12-10T13:00:29;34.80;;;31.13;;
11427;SDS011;5770;44.504;11.346;2022-12-10T13:03:06;35.97;;;32.05;;
11427;SDS011;5770;44.504;11.346;2022-12-10T13:05:46;35.88;;;31.98;;
11427;SDS011;5770;44.504;11.346;2022-12-10T13:08:25;36.28;;;32.20;;
11427;SDS011;5770;44.504;11.346;2022-12-10T13:10:59;36.28;;;32.28;;
11427;SDS011;5770;44.504;11.346;2022-12-10T13:14:02;35.20;;;31.42;;
11427;SDS011;5770;44.504;11.346;2022-12-10T13:16:49;38.15;;;32.40;;
11427;SDS011;5770;44.504;11.346;2022-12-10T13:19:26;36.58;;;31.55;;
11427;SDS011;5770;44.504;11.346;2022-12-10T13:22:02;36.22;;;31.30;;
11427;SDS011;5770;44.504;11.346;2022-12-10T13:27:37;33.42;;;29.73;;
11427;SDS011;5770;44.504;11.346;2022-12-10T13:33:03;33.70;;;30.10;;
11427;SDS011;5770;44.504;11.346;2022-12-10T13:35:44;33.72;;;30.13;;
11427;SDS011;5770;44.504;11.346;2022-12-10T13:38:20;35.05;;;29.40;;
11427;SDS011;5770;44.504;11.346;2022-12-10T13:40:56;33.42;;;29.88;;
11427;SDS011;5770;44.504;11.346;2022-12-10T13:43:53;35.10;;;29.73;;
11427;SDS011;5770;44.504;11.346;2022-12-10T13:46:57;34.65;;;29.90;;
11427;SDS011;5770;44.504;11.346;2022-12-10T13:49:26;32.20;;;28.77;;
11427;SDS011;5770;44.504;11.346;2022-12-10T13:51:57;31.23;;;28.00;;
11427;SDS011;5770;44.504;11.346;2022-12-10T13:54:35;32.00;;;28.45;;
11427;SDS011;5770;44.504;11.346;2022-12-10T13:57:08;31.60;;;27.95;;
11427;SDS011;5770;44.504;11.346;2022-12-10T13:59:41;31.80;;;27.38;;
11427;SDS011;5770;44.504;11.346;2022-12-10T14:02:27;31.52;;;28.10;;
11427;SDS011;5770;44.504;11.346;2022-12-10T14:05:14;28.83;;;25.83;;
11427;SDS011;5770;44.504;11.346;2022-12-10T14:07:46;31.50;;;27.42;;
11427;SDS011;5770;44.504;11.346;2022-12-10T14:10:16;29.85;;;26.67;;
11427;SDS011;5770;44.504;11.346;2022-12-10T14:12:45;28.45;;;25.40;;
11427;SDS011;5770;44.504;11.346;2022-12-10T14:15:15;28.52;;;25.15;;
11427;SDS011;5770;44.504;11.346;2022-12-10T14:17:48;30.95;;;25.75;;
11427;SDS011;5770;44.504;11.346;2022-12-10T14:20:17;28.90;;;25.25;;
11427;SDS011;5770;44.504;11.346;2022-12-10T14:22:46;28.77;;;24.77;;
11427;SDS011;5770;44.504;11.346;2022-12-10T14:25:19;28.10;;;24.92;;
11427;SDS011;5770;44.504;11.346;2022-12-10T14:27:48;26.17;;;23.40;;
11427;SDS011;5770;44.504;11.346;2022-12-10T14:30:17;25.05;;;22.45;;
11427;SDS011;5770;44.504;11.346;2022-12-10T14:32:47;24.92;;;21.65;;
11427;SDS011;5770;44.504;11.346;2022-12-10T14:35:16;26.08;;;22.30;;
11427;SDS011;5770;44.504;11.346;2022-12-10T14:37:47;26.42;;;23.60;;
11427;SDS011;5770;44.504;11.346;2022-12-10T14:40:18;24.88;;;22.27;;
11427;SDS011;5770;44.504;11.346;2022-12-10T14:42:46;24.42;;;21.85;;
11427;SDS011;5770;44.504;11.346;2022-12-10T14:45:13;24.75;;;22.20;;
11427;SDS011;5770;44.504;11.346;2022-12-10T14:47:42;23.48;;;21.02;;
11427;SDS011;5770;44.504;11.346;2022-12-10T14:50:11;24.45;;;21.83;;
11427;SDS011;5770;44.504;11.346;2022-12-10T14:52:40;24.00;;;21.08;;
11427;SDS011;5770;44.504;11.346;2022-12-10T14:55:11;22.48;;;20.08;;